sensor_id;sensor_type;location;lat;lon;timestamp;pressure;altitude;pressure_sealevel;temperature;humidity
22647;BME280;11490;42.726;23.268;2023-03-04T00:00:55;95251.03;;;7.11;100.00
22647;BME280;11490;42.726;23.268;2023-03-04T00:03:21;95264.59;;;6.96;100.00
22647;BME280;11490;42.726;23.268;2023-03-04T00:05:46;95258.53;;;6.89;100.00
22647;BME280;11490;42.726;23.268;2023-03-04T00:08:12;95265.78;;;7.00;100.00
22647;BME280;11490;42.726;23.268;2023-03-04T00:10:37;95255.88;;;6.89;100.00
22647;BME280;11490;42.726;23.268;2023-03-04T00:13:02;95261.44;;;6.81;100.00
22647;BME280;11490;42.726;23.268;2023-03-04T00:15:28;95256.94;;;6.75;100.00
22647;BME280;11490;42.726;23.268;2023-03-04T00:17:53;95255.31;;;6.80;100.00
22647;BME280;11490;42.726;23.268;2023-03-04T00:20:19;95258.06;;;6.92;100.00
22647;BME280;11490;42.726;23.268;2023-03-04T00:22:44;95240.75;;;6.89;100.00
22647;BME280;11490;42.726;23.268;2023-03-04T00:25:09;95247.06;;;6.95;100.00
22647;BME280;11490;42.726;23.268;2023-03-04T00:27:35;95244.56;;;7.00;100.00
22647;BME280;11490;42.726;23.268;2023-03-04T00:30:00;95245.34;;;7.07;100.00
22647;BME280;11490;42.726;23.268;2023-03-04T00:32:25;95233.75;;;7.02;100.00
22647;BME280;11490;42.726;23.268;2023-03-04T00:34:50;95241.16;;;6.93;100.00
22647;BME280;11490;42.726;23.268;2023-03-04T00:37:16;95234.06;;;6.87;100.00
22647;BME280;11490;42.726;23.268;2023-03-04T00:39:41;95233.63;;;6.90;100.00
22647;BME280;11490;42.726;23.268;2023-03-04T00:42:07;95232.38;;;6.92;100.00
22647;BME280;11490;42.726;23.268;2023-03-04T00:44:32;95226.63;;;7.02;100.00
22647;BME280;11490;42.726;23.268;2023-03-04T00:46:58;95237.22;;;7.02;100.00
22647;BME280;11490;42.726;23.268;2023-03-04T00:49:23;95227.03;;;6.99;100.00
22647;BME280;11490;42.726;23.268;2023-03-04T00:51:49;95237.81;;;7.04;100.00
22647;BME280;11490;42.726;23.268;2023-03-04T00:54:14;95224.06;;;6.89;100.00
22647;BME280;11490;42.726;23.268;2023-03-04T00:56:40;95226.53;;;6.84;100.00
22647;BME280;11490;42.726;23.268;2023-03-04T00:59:05;95220.09;;;6.73;100.00
22647;BME280;11490;42.726;23.268;2023-03-04T01:01:30;95225.59;;;6.72;100.00
22647;BME280;11490;42.726;23.268;2023-03-04T01:03:56;95230.16;;;6.51;100.00
22647;BME280;11490;42.726;23.268;2023-03-04T01:06:21;95212.66;;;6.50;100.00
22647;BME280;11490;42.726;23.268;2023-03-04T01:08:46;95221.50;;;6.69;100.00
22647;BME280;11490;42.726;23.268;2023-03-04T01:11:12;95223.97;;;6.71;100.00
22647;BME280;11490;42.726;23.268;2023-03-04T01:13:38;95221.59;;;6.56;100.00
22647;BME280;11490;42.726;23.268;2023-03-04T01:16:04;95230.94;;;6.58;100.00
22647;BME280;11490;42.726;23.268;2023-03-04T01:18:30;95230.13;;;6.65;100.00
22647;BME280;11490;42.726;23.268;2023-03-04T01:20:55;95220.78;;;6.55;100.00
22647;BME280;11490;42.726;23.268;2023-03-04T01:23:21;95227.44;;;6.71;100.00
22647;BME280;11490;42.726;23.268;2023-03-04T01:25:46;95214.53;;;6.75;100.00
22647;BME280;11490;42.726;23.268;2023-03-04T01:28:12;95216.53;;;6.86;100.00
22647;BME280;11490;42.726;23.268;2023-03-04T01:30:37;95212.38;;;6.97;100.00
22647;BME280;11490;42.726;23.268;2023-03-04T01:33:02;95223.00;;;6.90;100.00
22647;BME280;11490;42.726;23.268;2023-03-04T01:35:28;95212.25;;;6.85;100.00
22647;BME280;11490;42.726;23.268;2023-03-04T01:37:53;95218.56;;;6.84;100.00
22647;BME280;11490;42.726;23.268;2023-03-04T01:40:19;95209.50;;;6.98;100.00
22647;BME280;11490;42.726;23.268;2023-03-04T01:42:44;95204.19;;;6.98;100.00
22647;BME280;11490;42.726;23.268;2023-03-04T01:45:13;95206.94;;;6.85;100.00
22647;BME280;11490;42.726;23.268;2023-03-04T01:47:40;95199.16;;;6.90;100.00
22647;BME280;11490;42.726;23.268;2023-03-04T01:50:18;95196.69;;;6.95;100.00
22647;BME280;11490;42.726;23.268;2023-03-04T01:52:43;95181.94;;;6.99;100.00
22647;BME280;11490;42.726;23.268;2023-03-04T01:55:18;95188.72;;;6.95;100.00
22647;BME280;11490;42.726;23.268;2023-03-04T01:57:45;95176.59;;;6.81;100.00
22647;BME280;11490;42.726;23.268;2023-03-04T02:00:31;95187.22;;;6.81;100.00
22647;BME280;11490;42.726;23.268;2023-03-04T02:03:01;95192.63;;;6.61;100.00
22647;BME280;11490;42.726;23.268;2023-03-04T02:05:29;95182.31;;;6.46;100.00
22647;BME280;11490;42.726;23.268;2023-03-04T02:07:55;95174.00;;;6.36;100.00
22647;BME280;11490;42.726;23.268;2023-03-04T02:10:21;95181.91;;;6.49;100.00
22647;BME280;11490;42.726;23.268;2023-03-04T02:12:47;95191.53;;;6.37;100.00
22647;BME280;11490;42.726;23.268;2023-03-04T02:15:12;95189.56;;;6.26;100.00
22647;BME280;11490;42.726;23.268;2023-03-04T02:17:38;95186.47;;;6.29;100.00
22647;BME280;11490;42.726;23.268;2023-03-04T02:20:19;95194.25;;;6.24;100.00
22647;BME280;11490;42.726;23.268;2023-03-04T02:22:56;95196.59;;;6.45;100.00
22647;BME280;11490;42.726;23.268;2023-03-04T02:25:32;95190.25;;;6.46;100.00
22647;BME280;11490;42.726;23.268;2023-03-04T02:27:59;95186.59;;;6.47;100.00
22647;BME280;11490;42.726;23.268;2023-03-04T02:30:25;95176.41;;;6.44;100.00
22647;BME280;11490;42.726;23.268;2023-03-04T02:32:51;95190.31;;;6.40;100.00
22647;BME280;11490;42.726;23.268;2023-03-04T02:35:18;95178.97;;;6.26;100.00
22647;BME280;11490;42.726;23.268;2023-03-04T02:37:44;95189.53;;;6.33;100.00
22647;BME280;11490;42.726;23.268;2023-03-04T02:40:14;95178.00;;;6.52;100.00
22647;BME280;11490;42.726;23.268;2023-03-04T02:42:42;95177.13;;;6.65;100.00
22647;BME280;11490;42.726;23.268;2023-03-04T02:47:59;95168.66;;;6.49;100.00
22647;BME280;11490;42.726;23.268;2023-03-04T02:50:27;95167.44;;;6.45;100.00
22647;BME280;11490;42.726;23.268;2023-03-04T02:52:54;95156.84;;;6.45;100.00
22647;BME280;11490;42.726;23.268;2023-03-04T02:55:19;95158.72;;;6.38;100.00
22647;BME280;11490;42.726;23.268;2023-03-04T02:57:44;95161.88;;;6.53;100.00
22647;BME280;11490;42.726;23.268;2023-03-04T03:00:10;95155.16;;;6.57;100.00
22647;BME280;11490;42.726;23.268;2023-03-04T03:02:36;95162.59;;;6.36;100.00
22647;BME280;11490;42.726;23.268;2023-03-04T03:05:01;95173.34;;;6.47;100.00
22647;BME280;11490;42.726;23.268;2023-03-04T03:07:27;95170.59;;;6.61;100.00
22647;BME280;11490;42.726;23.268;2023-03-04T03:09:52;95166.53;;;6.65;100.00
22647;BME280;11490;42.726;23.268;2023-03-04T03:12:18;95169.06;;;6.46;100.00
22647;BME280;11490;42.726;23.268;2023-03-04T03:14:43;95178.47;;;6.42;100.00
22647;BME280;11490;42.726;23.268;2023-03-04T03:17:08;95178.53;;;6.29;100.00
22647;BME280;11490;42.726;23.268;2023-03-04T03:19:34;95183.59;;;6.37;100.00
22647;BME280;11490;42.726;23.268;2023-03-04T03:22:00;95172.91;;;6.12;100.00
22647;BME280;11490;42.726;23.268;2023-03-04T03:24:25;95168.84;;;6.10;100.00
22647;BME280;11490;42.726;23.268;2023-03-04T03:26:50;95164.88;;;5.74;100.00
22647;BME280;11490;42.726;23.268;2023-03-04T03:29:16;95164.97;;;5.48;100.00
22647;BME280;11490;42.726;23.268;2023-03-04T03:31:41;95161.34;;;5.23;100.00
22647;BME280;11490;42.726;23.268;2023-03-04T03:34:06;95159.75;;;5.02;100.00
22647;BME280;11490;42.726;23.268;2023-03-04T03:36:32;95155.25;;;5.16;100.00
22647;BME280;11490;42.726;23.268;2023-03-04T03:38:57;95162.56;;;5.20;100.00
22647;BME280;11490;42.726;23.268;2023-03-04T03:41:23;95165.00;;;5.28;100.00
22647;BME280;11490;42.726;23.268;2023-03-04T03:43:48;95151.91;;;5.53;100.00
22647;BME280;11490;42.726;23.268;2023-03-04T03:46:13;95171.47;;;5.52;100.00
22647;BME280;11490;42.726;23.268;2023-03-04T03:48:39;95147.88;;;5.44;100.00
22647;BME280;11490;42.726;23.268;2023-03-04T03:51:04;95148.75;;;5.25;100.00
22647;BME280;11490;42.726;23.268;2023-03-04T03:53:29;95157.03;;;5.35;100.00
22647;BME280;11490;42.726;23.268;2023-03-04T03:55:55;95163.78;;;5.04;100.00
22647;BME280;11490;42.726;23.268;2023-03-04T03:58:20;95165.41;;;5.06;100.00
22647;BME280;11490;42.726;23.268;2023-03-04T04:00:47;95157.47;;;5.32;100.00
22647;BME280;11490;42.726;23.268;2023-03-04T04:03:16;95155.88;;;4.98;100.00
22647;BME280;11490;42.726;23.268;2023-03-04T04:05:41;95140.63;;;5.00;100.00
22647;BME280;11490;42.726;23.268;2023-03-04T04:08:11;95144.09;;;4.61;100.00
22647;BME280;11490;42.726;23.268;2023-03-04T04:10:36;95125.19;;;4.51;100.00
22647;BME280;11490;42.726;23.268;2023-03-04T04:13:02;95142.25;;;4.55;100.00
22647;BME280;11490;42.726;23.268;2023-03-04T04:15:27;95135.53;;;4.39;100.00
22647;BME280;11490;42.726;23.268;2023-03-04T04:17:53;95147.53;;;4.81;100.00
22647;BME280;11490;42.726;23.268;2023-03-04T04:20:18;95147.53;;;4.81;100.00
22647;BME280;11490;42.726;23.268;2023-03-04T04:22:43;95146.13;;;4.72;100.00
22647;BME280;11490;42.726;23.268;2023-03-04T04:25:09;95146.72;;;4.74;100.00
22647;BME280;11490;42.726;23.268;2023-03-04T04:27:35;95146.13;;;4.92;100.00
22647;BME280;11490;42.726;23.268;2023-03-04T04:30:00;95138.00;;;4.67;100.00
22647;BME280;11490;42.726;23.268;2023-03-04T04:32:25;95143.06;;;4.88;100.00
22647;BME280;11490;42.726;23.268;2023-03-04T04:34:51;95151.22;;;4.93;100.00
22647;BME280;11490;42.726;23.268;2023-03-04T04:37:16;95145.28;;;4.58;100.00
22647;BME280;11490;42.726;23.268;2023-03-04T04:39:41;95155.22;;;4.37;100.00
22647;BME280;11490;42.726;23.268;2023-03-04T04:42:09;95151.94;;;4.21;100.00
22647;BME280;11490;42.726;23.268;2023-03-04T04:44:35;95132.91;;;4.39;100.00
22647;BME280;11490;42.726;23.268;2023-03-04T04:47:03;95152.81;;;4.68;100.00
22647;BME280;11490;42.726;23.268;2023-03-04T04:49:30;95154.00;;;4.33;100.00
22647;BME280;11490;42.726;23.268;2023-03-04T04:51:56;95150.38;;;4.40;100.00
22647;BME280;11490;42.726;23.268;2023-03-04T04:54:21;95146.66;;;4.21;100.00
22647;BME280;11490;42.726;23.268;2023-03-04T04:56:46;95147.94;;;4.52;100.00
22647;BME280;11490;42.726;23.268;2023-03-04T04:59:12;95150.38;;;4.53;100.00
22647;BME280;11490;42.726;23.268;2023-03-04T05:01:37;95138.56;;;4.23;100.00
22647;BME280;11490;42.726;23.268;2023-03-04T05:04:03;95165.34;;;4.26;100.00
22647;BME280;11490;42.726;23.268;2023-03-04T05:06:28;95169.88;;;4.46;100.00
22647;BME280;11490;42.726;23.268;2023-03-04T05:08:54;95170.63;;;4.20;100.00
22647;BME280;11490;42.726;23.268;2023-03-04T05:11:20;95171.69;;;4.39;100.00
22647;BME280;11490;42.726;23.268;2023-03-04T05:13:47;95180.75;;;4.10;100.00
22647;BME280;11490;42.726;23.268;2023-03-04T05:16:13;95175.88;;;4.13;100.00
22647;BME280;11490;42.726;23.268;2023-03-04T05:18:39;95171.19;;;4.02;100.00
22647;BME280;11490;42.726;23.268;2023-03-04T05:21:05;95178.66;;;3.99;100.00
22647;BME280;11490;42.726;23.268;2023-03-04T05:23:33;95179.94;;;4.09;100.00
22647;BME280;11490;42.726;23.268;2023-03-04T05:26:00;95187.53;;;4.52;100.00
22647;BME280;11490;42.726;23.268;2023-03-04T05:28:25;95173.75;;;4.63;100.00
22647;BME280;11490;42.726;23.268;2023-03-04T05:30:51;95161.75;;;4.54;100.00
22647;BME280;11490;42.726;23.268;2023-03-04T05:33:17;95192.25;;;4.63;100.00
22647;BME280;11490;42.726;23.268;2023-03-04T05:35:43;95197.13;;;4.73;100.00
22647;BME280;11490;42.726;23.268;2023-03-04T05:38:12;95187.59;;;4.98;100.00
22647;BME280;11490;42.726;23.268;2023-03-04T05:40:39;95182.31;;;4.72;100.00
22647;BME280;11490;42.726;23.268;2023-03-04T05:43:05;95193.25;;;4.75;100.00
22647;BME280;11490;42.726;23.268;2023-03-04T05:45:30;95179.66;;;5.04;100.00
22647;BME280;11490;42.726;23.268;2023-03-04T05:47:56;95184.53;;;5.34;100.00
22647;BME280;11490;42.726;23.268;2023-03-04T05:50:22;95194.28;;;5.14;100.00
22647;BME280;11490;42.726;23.268;2023-03-04T05:52:48;95198.34;;;5.36;100.00
22647;BME280;11490;42.726;23.268;2023-03-04T05:55:15;95206.03;;;5.70;100.00
22647;BME280;11490;42.726;23.268;2023-03-04T05:57:40;95211.94;;;5.72;100.00
22647;BME280;11490;42.726;23.268;2023-03-04T06:00:07;95202.94;;;5.93;100.00
22647;BME280;11490;42.726;23.268;2023-03-04T06:02:37;95193.34;;;5.86;100.00
22647;BME280;11490;42.726;23.268;2023-03-04T06:05:02;95206.72;;;6.17;100.00
22647;BME280;11490;42.726;23.268;2023-03-04T06:07:29;95207.47;;;6.31;100.00
22647;BME280;11490;42.726;23.268;2023-03-04T06:09:55;95215.56;;;6.42;100.00
22647;BME280;11490;42.726;23.268;2023-03-04T06:12:20;95219.56;;;6.51;100.00
22647;BME280;11490;42.726;23.268;2023-03-04T06:14:46;95217.44;;;6.67;100.00
22647;BME280;11490;42.726;23.268;2023-03-04T06:17:11;95201.19;;;6.63;100.00
22647;BME280;11490;42.726;23.268;2023-03-04T06:19:37;95209.69;;;6.72;100.00
22647;BME280;11490;42.726;23.268;2023-03-04T06:22:03;95201.28;;;6.75;100.00
22647;BME280;11490;42.726;23.268;2023-03-04T06:24:29;95200.72;;;6.73;100.00
22647;BME280;11490;42.726;23.268;2023-03-04T06:26:54;95208.72;;;6.91;100.00
22647;BME280;11490;42.726;23.268;2023-03-04T06:29:20;95218.59;;;7.09;100.00
22647;BME280;11490;42.726;23.268;2023-03-04T06:31:45;95212.75;;;7.00;100.00
22647;BME280;11490;42.726;23.268;2023-03-04T06:34:10;95224.56;;;7.04;100.00
22647;BME280;11490;42.726;23.268;2023-03-04T06:36:36;95226.34;;;7.10;100.00
22647;BME280;11490;42.726;23.268;2023-03-04T06:39:03;95229.66;;;7.30;100.00
22647;BME280;11490;42.726;23.268;2023-03-04T06:41:28;95221.84;;;7.35;100.00
22647;BME280;11490;42.726;23.268;2023-03-04T06:43:54;95213.25;;;7.15;100.00
22647;BME280;11490;42.726;23.268;2023-03-04T06:46:19;95215.34;;;7.31;100.00
22647;BME280;11490;42.726;23.268;2023-03-04T06:48:46;95221.53;;;7.25;100.00
22647;BME280;11490;42.726;23.268;2023-03-04T06:51:12;95233.66;;;7.40;100.00
22647;BME280;11490;42.726;23.268;2023-03-04T06:53:38;95237.88;;;7.22;100.00
22647;BME280;11490;42.726;23.268;2023-03-04T06:56:05;95233.69;;;7.08;100.00
22647;BME280;11490;42.726;23.268;2023-03-04T06:58:31;95223.34;;;7.00;100.00
22647;BME280;11490;42.726;23.268;2023-03-04T07:00:56;95238.94;;;7.15;100.00
22647;BME280;11490;42.726;23.268;2023-03-04T07:03:22;95247.88;;;6.95;100.00
22647;BME280;11490;42.726;23.268;2023-03-04T07:05:47;95213.72;;;6.81;100.00
22647;BME280;11490;42.726;23.268;2023-03-04T07:08:13;95223.88;;;6.84;100.00
22647;BME280;11490;42.726;23.268;2023-03-04T07:10:42;95203.47;;;6.84;100.00
22647;BME280;11490;42.726;23.268;2023-03-04T07:13:07;95214.38;;;7.01;100.00
22647;BME280;11490;42.726;23.268;2023-03-04T07:15:36;95233.09;;;7.06;100.00
22647;BME280;11490;42.726;23.268;2023-03-04T07:18:01;95212.81;;;6.93;100.00
22647;BME280;11490;42.726;23.268;2023-03-04T07:20:27;95213.09;;;6.79;100.00
22647;BME280;11490;42.726;23.268;2023-03-04T07:22:52;95230.63;;;7.11;100.00
22647;BME280;11490;42.726;23.268;2023-03-04T07:25:18;95232.88;;;7.08;100.00
22647;BME280;11490;42.726;23.268;2023-03-04T07:27:43;95224.88;;;7.14;100.00
22647;BME280;11490;42.726;23.268;2023-03-04T07:30:09;95214.44;;;7.19;100.00
22647;BME280;11490;42.726;23.268;2023-03-04T07:32:40;95254.72;;;7.34;100.00
22647;BME280;11490;42.726;23.268;2023-03-04T07:38:04;95227.34;;;7.41;100.00
22647;BME280;11490;42.726;23.268;2023-03-04T07:44:41;95246.66;;;7.48;99.72
22647;BME280;11490;42.726;23.268;2023-03-04T07:47:40;95191.69;;;7.55;99.52
22647;BME280;11490;42.726;23.268;2023-03-04T07:53:50;95179.72;;;7.46;97.78
22647;BME280;11490;42.726;23.268;2023-03-04T07:56:39;95244.22;;;8.07;96.76
22647;BME280;11490;42.726;23.268;2023-03-04T07:59:29;95243.19;;;8.08;96.82
22647;BME280;11490;42.726;23.268;2023-03-04T08:02:12;95180.50;;;7.89;96.10
22647;BME280;11490;42.726;23.268;2023-03-04T08:04:51;95178.28;;;8.04;95.75
22647;BME280;11490;42.726;23.268;2023-03-04T08:07:20;95217.22;;;8.29;95.02
22647;BME280;11490;42.726;23.268;2023-03-04T08:09:48;95206.66;;;8.22;95.05
22647;BME280;11490;42.726;23.268;2023-03-04T08:15:17;95208.97;;;8.37;95.21
22647;BME280;11490;42.726;23.268;2023-03-04T08:17:45;95202.16;;;8.23;94.31
22647;BME280;11490;42.726;23.268;2023-03-04T08:20:10;95224.44;;;8.22;95.53
22647;BME280;11490;42.726;23.268;2023-03-04T08:22:36;95235.19;;;8.33;95.16
22647;BME280;11490;42.726;23.268;2023-03-04T08:25:01;95219.59;;;8.19;92.91
22647;BME280;11490;42.726;23.268;2023-03-04T08:27:27;95227.19;;;8.15;94.04
22647;BME280;11490;42.726;23.268;2023-03-04T08:29:52;95201.13;;;8.05;94.74
22647;BME280;11490;42.726;23.268;2023-03-04T08:32:18;95215.75;;;8.15;95.86
22647;BME280;11490;42.726;23.268;2023-03-04T08:34:43;95223.34;;;8.29;95.91
22647;BME280;11490;42.726;23.268;2023-03-04T08:37:09;95193.94;;;8.13;95.78
22647;BME280;11490;42.726;23.268;2023-03-04T08:39:35;95230.75;;;8.27;93.38
22647;BME280;11490;42.726;23.268;2023-03-04T08:42:02;95215.19;;;8.31;93.45
22647;BME280;11490;42.726;23.268;2023-03-04T08:44:27;95203.06;;;8.17;95.58
22647;BME280;11490;42.726;23.268;2023-03-04T08:46:52;95207.03;;;8.26;95.36
22647;BME280;11490;42.726;23.268;2023-03-04T08:49:18;95220.91;;;8.46;93.08
22647;BME280;11490;42.726;23.268;2023-03-04T08:51:43;95228.00;;;8.52;92.79
22647;BME280;11490;42.726;23.268;2023-03-04T08:54:09;95214.56;;;8.29;93.87
22647;BME280;11490;42.726;23.268;2023-03-04T08:56:35;95226.69;;;7.88;92.77
22647;BME280;11490;42.726;23.268;2023-03-04T08:59:01;95210.44;;;7.78;92.10
22647;BME280;11490;42.726;23.268;2023-03-04T09:01:26;95192.56;;;7.67;93.63
22647;BME280;11490;42.726;23.268;2023-03-04T09:03:51;95210.44;;;7.96;94.18
22647;BME280;11490;42.726;23.268;2023-03-04T09:06:18;95214.41;;;8.05;94.86
22647;BME280;11490;42.726;23.268;2023-03-04T09:08:44;95214.41;;;8.24;94.97
22647;BME280;11490;42.726;23.268;2023-03-04T09:11:09;95210.47;;;8.33;94.40
22647;BME280;11490;42.726;23.268;2023-03-04T09:13:35;95205.56;;;8.48;94.91
22647;BME280;11490;42.726;23.268;2023-03-04T09:16:01;95199.66;;;8.46;94.02
22647;BME280;11490;42.726;23.268;2023-03-04T09:18:27;95203.13;;;8.46;92.71
22647;BME280;11490;42.726;23.268;2023-03-04T09:20:53;95184.00;;;8.38;92.18
22647;BME280;11490;42.726;23.268;2023-03-04T09:23:19;95198.00;;;8.63;91.87
22647;BME280;11490;42.726;23.268;2023-03-04T09:25:45;95203.59;;;8.73;91.20
22647;BME280;11490;42.726;23.268;2023-03-04T09:28:12;95198.59;;;8.65;91.19
22647;BME280;11490;42.726;23.268;2023-03-04T09:30:38;95200.16;;;8.55;90.16
22647;BME280;11490;42.726;23.268;2023-03-04T09:33:04;95196.56;;;8.49;90.34
22647;BME280;11490;42.726;23.268;2023-03-04T09:35:29;95191.59;;;8.53;90.44
22647;BME280;11490;42.726;23.268;2023-03-04T09:37:56;95177.03;;;8.55;91.43
22647;BME280;11490;42.726;23.268;2023-03-04T09:40:26;95187.16;;;8.76;92.86
22647;BME280;11490;42.726;23.268;2023-03-04T09:42:59;95170.78;;;8.79;91.73
22647;BME280;11490;42.726;23.268;2023-03-04T09:45:34;95185.22;;;8.83;91.90
22647;BME280;11490;42.726;23.268;2023-03-04T09:48:01;95205.06;;;9.11;91.05
22647;BME280;11490;42.726;23.268;2023-03-04T09:50:28;95186.94;;;9.19;90.35
22647;BME280;11490;42.726;23.268;2023-03-04T09:53:22;95190.41;;;9.32;90.98
22647;BME280;11490;42.726;23.268;2023-03-04T09:55:51;95187.94;;;9.07;88.35
22647;BME280;11490;42.726;23.268;2023-03-04T09:58:36;95187.75;;;9.32;89.12
22647;BME280;11490;42.726;23.268;2023-03-04T10:01:12;95178.28;;;9.47;88.02
22647;BME280;11490;42.726;23.268;2023-03-04T10:03:54;95179.19;;;9.64;87.76
22647;BME280;11490;42.726;23.268;2023-03-04T10:06:23;95177.31;;;9.77;88.50
22647;BME280;11490;42.726;23.268;2023-03-04T10:08:56;95173.38;;;10.02;87.78
22647;BME280;11490;42.726;23.268;2023-03-04T10:17:13;95170.56;;;10.09;83.27
22647;BME280;11490;42.726;23.268;2023-03-04T10:22:35;95144.50;;;9.99;86.34
22647;BME280;11490;42.726;23.268;2023-03-04T10:27:54;95155.16;;;9.99;87.24
22647;BME280;11490;42.726;23.268;2023-03-04T10:33:17;95150.78;;;9.93;85.70
22647;BME280;11490;42.726;23.268;2023-03-04T10:35:47;95147.25;;;10.16;87.57
22647;BME280;11490;42.726;23.268;2023-03-04T10:38:14;95127.22;;;9.74;86.36
22647;BME280;11490;42.726;23.268;2023-03-04T10:40:41;95133.94;;;9.53;87.47
22647;BME280;11490;42.726;23.268;2023-03-04T10:43:15;95130.91;;;9.73;86.57
22647;BME280;11490;42.726;23.268;2023-03-04T10:45:40;95129.16;;;9.90;86.21
22647;BME280;11490;42.726;23.268;2023-03-04T10:48:17;95105.00;;;10.08;87.58
22647;BME280;11490;42.726;23.268;2023-03-04T10:50:43;95121.41;;;9.77;85.98
22647;BME280;11490;42.726;23.268;2023-03-04T10:53:24;95119.50;;;10.00;85.64
22647;BME280;11490;42.726;23.268;2023-03-04T10:55:49;95099.56;;;10.03;86.35
22647;BME280;11490;42.726;23.268;2023-03-04T10:58:19;95072.84;;;9.98;85.75
22647;BME280;11490;42.726;23.268;2023-03-04T11:00:59;95105.44;;;10.28;85.22
22647;BME280;11490;42.726;23.268;2023-03-04T11:03:35;95108.94;;;10.17;84.46
22647;BME280;11490;42.726;23.268;2023-03-04T11:08:40;95088.78;;;10.21;85.90
22647;BME280;11490;42.726;23.268;2023-03-04T11:11:41;95085.56;;;10.36;85.28
22647;BME280;11490;42.726;23.268;2023-03-04T11:14:20;95076.94;;;10.17;83.56
22647;BME280;11490;42.726;23.268;2023-03-04T11:17:14;95085.28;;;10.09;83.48
22647;BME280;11490;42.726;23.268;2023-03-04T11:20:04;95074.09;;;10.35;85.38
22647;BME280;11490;42.726;23.268;2023-03-04T11:22:34;95062.47;;;10.13;85.08
22647;BME280;11490;42.726;23.268;2023-03-04T11:25:06;95059.72;;;10.36;84.92
22647;BME280;11490;42.726;23.268;2023-03-04T11:27:44;95057.16;;;9.61;83.29
22647;BME280;11490;42.726;23.268;2023-03-04T11:30:35;95071.16;;;9.80;84.74
22647;BME280;11490;42.726;23.268;2023-03-04T11:33:27;95027.81;;;9.85;84.09
22647;BME280;11490;42.726;23.268;2023-03-04T11:38:49;95002.78;;;9.86;84.24
22647;BME280;11490;42.726;23.268;2023-03-04T11:41:19;95022.75;;;10.00;82.17
22647;BME280;11490;42.726;23.268;2023-03-04T11:43:47;95047.66;;;10.06;83.85
22647;BME280;11490;42.726;23.268;2023-03-04T11:56:46;94984.00;;;9.64;84.35
22647;BME280;11490;42.726;23.268;2023-03-04T12:10:27;95019.50;;;10.71;85.58
22647;BME280;11490;42.726;23.268;2023-03-04T12:27:04;94967.84;;;10.61;81.59
22647;BME280;11490;42.726;23.268;2023-03-04T12:38:27;94987.66;;;10.65;78.61
22647;BME280;11490;42.726;23.268;2023-03-04T12:41:01;94981.19;;;10.77;82.77
22647;BME280;11490;42.726;23.268;2023-03-04T12:51:45;94962.63;;;10.66;80.15
22647;BME280;11490;42.726;23.268;2023-03-04T12:57:33;94953.38;;;10.73;79.44
22647;BME280;11490;42.726;23.268;2023-03-04T13:03:17;94954.59;;;10.66;80.07
22647;BME280;11490;42.726;23.268;2023-03-04T13:16:58;94945.28;;;10.85;80.84
22647;BME280;11490;42.726;23.268;2023-03-04T13:22:33;94943.03;;;10.77;80.40
22647;BME280;11490;42.726;23.268;2023-03-04T13:38:42;94936.34;;;10.58;82.16
22647;BME280;11490;42.726;23.268;2023-03-04T13:41:23;94928.50;;;10.68;81.95
22647;BME280;11490;42.726;23.268;2023-03-04T13:43:59;94921.06;;;10.70;81.52
22647;BME280;11490;42.726;23.268;2023-03-04T13:46:30;94913.25;;;10.85;81.89
22647;BME280;11490;42.726;23.268;2023-03-04T13:49:13;94912.34;;;10.96;81.30
22647;BME280;11490;42.726;23.268;2023-03-04T13:51:42;94919.66;;;10.84;81.42
22647;BME280;11490;42.726;23.268;2023-03-04T13:56:45;94917.50;;;10.81;80.64
22647;BME280;11490;42.726;23.268;2023-03-04T14:02:20;94918.69;;;11.12;81.72
22647;BME280;11490;42.726;23.268;2023-03-04T14:04:57;94894.91;;;11.10;81.16
22647;BME280;11490;42.726;23.268;2023-03-04T14:07:29;94907.97;;;11.29;80.59
22647;BME280;11490;42.726;23.268;2023-03-04T14:12:43;94907.97;;;11.29;80.53
22647;BME280;11490;42.726;23.268;2023-03-04T14:17:43;94902.88;;;11.05;80.32
22647;BME280;11490;42.726;23.268;2023-03-04T14:22:54;94894.72;;;10.57;82.28
22647;BME280;11490;42.726;23.268;2023-03-04T14:25:22;94896.34;;;10.58;82.08
22647;BME280;11490;42.726;23.268;2023-03-04T14:27:48;94864.72;;;10.45;81.32
22647;BME280;11490;42.726;23.268;2023-03-04T14:30:25;94888.72;;;10.45;82.11
22647;BME280;11490;42.726;23.268;2023-03-04T14:32:56;94880.97;;;10.26;82.09
22647;BME280;11490;42.726;23.268;2023-03-04T14:35:27;94863.56;;;10.40;82.64
22647;BME280;11490;42.726;23.268;2023-03-04T14:40:47;94865.50;;;10.12;84.50
22647;BME280;11490;42.726;23.268;2023-03-04T14:43:28;94874.16;;;10.35;84.25
22647;BME280;11490;42.726;23.268;2023-03-04T14:45:58;94855.50;;;10.35;84.27
22647;BME280;11490;42.726;23.268;2023-03-04T14:48:33;94872.13;;;10.09;83.59
22647;BME280;11490;42.726;23.268;2023-03-04T14:51:00;94869.72;;;10.24;83.57
22647;BME280;11490;42.726;23.268;2023-03-04T14:53:29;94855.50;;;10.02;83.33
22647;BME280;11490;42.726;23.268;2023-03-04T14:56:03;94856.78;;;10.33;83.31
22647;BME280;11490;42.726;23.268;2023-03-04T14:58:31;94856.59;;;10.56;82.35
22647;BME280;11490;42.726;23.268;2023-03-04T15:01:22;94867.72;;;10.70;81.84
22647;BME280;11490;42.726;23.268;2023-03-04T15:03:55;94858.97;;;10.74;82.45
22647;BME280;11490;42.726;23.268;2023-03-04T15:06:24;94840.19;;;10.48;81.69
22647;BME280;11490;42.726;23.268;2023-03-04T15:11:30;94842.78;;;10.81;81.31
22647;BME280;11490;42.726;23.268;2023-03-04T15:13:58;94831.31;;;10.59;80.76
22647;BME280;11490;42.726;23.268;2023-03-04T15:16:28;94837.72;;;10.41;82.04
22647;BME280;11490;42.726;23.268;2023-03-04T15:19:28;94834.44;;;10.56;82.53
22647;BME280;11490;42.726;23.268;2023-03-04T15:22:05;94840.69;;;10.83;81.55